sensor_id;sensor_type;location;lat;lon;timestamp;pressure;altitude;pressure_sealevel;temperature;humidity
52797;BME280;38666;43.348;12.584;2023-02-04T06:54:10;96182.50;;;5.84;100.00
52797;BME280;38666;43.348;12.584;2023-02-04T06:56:35;96189.22;;;5.90;100.00
52797;BME280;38666;43.348;12.584;2023-02-04T06:59:01;96182.72;;;5.95;100.00
52797;BME280;38666;43.348;12.584;2023-02-04T07:01:27;96178.94;;;6.00;100.00
52797;BME280;38666;43.348;12.584;2023-02-04T07:03:52;96183.81;;;6.10;100.00
52797;BME280;38666;43.348;12.584;2023-02-04T07:06:18;96188.53;;;6.13;100.00
52797;BME280;38666;43.348;12.584;2023-02-04T07:08:43;96188.00;;;6.28;100.00
52797;BME280;38666;43.348;12.584;2023-02-04T07:11:09;96181.16;;;6.34;100.00
52797;BME280;38666;43.348;12.584;2023-02-04T07:13:34;96186.00;;;6.44;100.00
52797;BME280;38666;43.348;12.584;2023-02-04T07:16:00;96180.03;;;6.58;100.00
52797;BME280;38666;43.348;12.584;2023-02-04T07:18:25;96183.31;;;6.68;100.00
52797;BME280;38666;43.348;12.584;2023-02-04T07:20:50;96168.28;;;6.74;100.00
52797;BME280;38666;43.348;12.584;2023-02-04T07:23:16;96167.16;;;6.79;100.00
52797;BME280;38666;43.348;12.584;2023-02-04T07:25:41;96159.75;;;6.99;99.63
52797;BME280;38666;43.348;12.584;2023-02-04T07:28:08;96160.72;;;7.14;98.67
52797;BME280;38666;43.348;12.584;2023-02-04T07:30:33;96170.22;;;7.24;97.45
52797;BME280;38666;43.348;12.584;2023-02-04T07:32:59;96176.50;;;7.32;96.19
52797;BME280;38666;43.348;12.584;2023-02-04T07:35:24;96185.53;;;7.67;96.68
52797;BME280;38666;43.348;12.584;2023-02-04T07:37:50;96180.28;;;8.50;91.35
52797;BME280;38666;43.348;12.584;2023-02-04T07:40:15;96185.25;;;8.79;86.04
52797;BME280;38666;43.348;12.584;2023-02-04T07:42:41;96175.81;;;9.82;81.62
52797;BME280;38666;43.348;12.584;2023-02-04T07:45:07;96167.41;;;10.42;78.00
52797;BME280;38666;43.348;12.584;2023-02-04T07:47:32;96171.44;;;10.77;73.91
52797;BME280;38666;43.348;12.584;2023-02-04T07:49:58;96162.81;;;11.01;69.38
52797;BME280;38666;43.348;12.584;2023-02-04T07:52:24;96179.63;;;11.03;70.47
52797;BME280;38666;43.348;12.584;2023-02-04T07:54:50;96187.66;;;12.01;65.52
52797;BME280;38666;43.348;12.584;2023-02-04T07:57:17;96184.13;;;12.83;61.04
52797;BME280;38666;43.348;12.584;2023-02-04T07:59:43;96189.69;;;13.68;57.24
52797;BME280;38666;43.348;12.584;2023-02-04T08:02:09;96188.25;;;13.56;55.93
52797;BME280;38666;43.348;12.584;2023-02-04T08:04:35;96181.59;;;13.92;54.51
52797;BME280;38666;43.348;12.584;2023-02-04T08:07:02;96182.84;;;14.77;49.79
52797;BME280;38666;43.348;12.584;2023-02-04T08:09:27;96190.22;;;15.60;48.03
52797;BME280;38666;43.348;12.584;2023-02-04T08:11:53;96189.06;;;15.33;48.77
52797;BME280;38666;43.348;12.584;2023-02-04T08:14:18;96189.34;;;15.63;47.14
52797;BME280;38666;43.348;12.584;2023-02-04T08:16:44;96185.22;;;15.03;48.36
52797;BME280;38666;43.348;12.584;2023-02-04T08:19:09;96188.16;;;14.92;49.05
52797;BME280;38666;43.348;12.584;2023-02-04T08:21:35;96188.38;;;14.46;50.59
52797;BME280;38666;43.348;12.584;2023-02-04T08:24:00;96176.25;;;13.77;52.27
52797;BME280;38666;43.348;12.584;2023-02-04T08:26:26;96168.25;;;13.55;55.73
52797;BME280;38666;43.348;12.584;2023-02-04T08:28:51;96182.81;;;13.45;55.79
52797;BME280;38666;43.348;12.584;2023-02-04T08:31:16;96183.38;;;14.96;50.64
52797;BME280;38666;43.348;12.584;2023-02-04T08:33:42;96183.16;;;14.55;50.89
52797;BME280;38666;43.348;12.584;2023-02-04T08:36:07;96174.00;;;15.86;48.25
52797;BME280;38666;43.348;12.584;2023-02-04T08:38:33;96176.38;;;15.84;48.38
52797;BME280;38666;43.348;12.584;2023-02-04T08:40:59;96175.22;;;16.63;44.70
52797;BME280;38666;43.348;12.584;2023-02-04T08:43:25;96172.81;;;16.98;44.88
52797;BME280;38666;43.348;12.584;2023-02-04T08:45:51;96171.34;;;17.43;43.52
52797;BME280;38666;43.348;12.584;2023-02-04T08:48:16;96174.09;;;16.77;44.00
52797;BME280;38666;43.348;12.584;2023-02-04T08:50:42;96164.06;;;16.49;45.17
52797;BME280;38666;43.348;12.584;2023-02-04T08:53:07;96158.69;;;16.42;45.29
52797;BME280;38666;43.348;12.584;2023-02-04T08:55:32;96155.81;;;17.79;41.48
52797;BME280;38666;43.348;12.584;2023-02-04T08:57:58;96158.53;;;18.52;39.67
52797;BME280;38666;43.348;12.584;2023-02-04T09:00:25;96160.38;;;17.56;42.08
52797;BME280;38666;43.348;12.584;2023-02-04T09:02:51;96161.28;;;18.52;39.78
52797;BME280;38666;43.348;12.584;2023-02-04T09:05:16;96147.84;;;19.29;38.15
52797;BME280;38666;43.348;12.584;2023-02-04T09:07:41;96140.06;;;19.72;37.16
52797;BME280;38666;43.348;12.584;2023-02-04T09:10:07;96157.41;;;19.85;37.37
52797;BME280;38666;43.348;12.584;2023-02-04T09:12:33;96154.09;;;19.55;37.57
52797;BME280;38666;43.348;12.584;2023-02-04T09:14:58;96156.19;;;19.87;37.59
52797;BME280;38666;43.348;12.584;2023-02-04T09:17:24;96153.56;;;20.60;35.36
52797;BME280;38666;43.348;12.584;2023-02-04T09:19:49;96158.56;;;21.53;33.83
52797;BME280;38666;43.348;12.584;2023-02-04T09:22:14;96146.69;;;21.34;33.45
52797;BME280;38666;43.348;12.584;2023-02-04T09:24:40;96132.84;;;20.42;35.31
52797;BME280;38666;43.348;12.584;2023-02-04T09:27:05;96151.94;;;21.22;33.95
52797;BME280;38666;43.348;12.584;2023-02-04T09:29:31;96135.44;;;20.77;34.74
52797;BME280;38666;43.348;12.584;2023-02-04T09:31:56;96139.63;;;21.89;32.80
52797;BME280;38666;43.348;12.584;2023-02-04T09:34:22;96150.69;;;22.27;31.65
52797;BME280;38666;43.348;12.584;2023-02-04T09:36:48;96139.28;;;22.15;31.67
52797;BME280;38666;43.348;12.584;2023-02-04T09:39:13;96151.81;;;21.82;32.07
52797;BME280;38666;43.348;12.584;2023-02-04T09:41:40;96153.47;;;22.17;31.25
52797;BME280;38666;43.348;12.584;2023-02-04T09:44:17;96138.84;;;20.91;33.36
52797;BME280;38666;43.348;12.584;2023-02-04T09:46:48;96150.38;;;21.31;32.77
52797;BME280;38666;43.348;12.584;2023-02-04T09:49:14;96149.16;;;21.22;33.28
52797;BME280;38666;43.348;12.584;2023-02-04T09:51:40;96138.66;;;20.35;34.04
52797;BME280;38666;43.348;12.584;2023-02-04T09:54:19;96142.78;;;21.12;33.45
52797;BME280;38666;43.348;12.584;2023-02-04T09:56:45;96142.66;;;22.10;31.81
52797;BME280;38666;43.348;12.584;2023-02-04T09:59:16;96148.59;;;22.55;30.80
52797;BME280;38666;43.348;12.584;2023-02-04T10:01:42;96149.06;;;23.21;30.26
52797;BME280;38666;43.348;12.584;2023-02-04T10:04:11;96156.66;;;22.44;31.28
52797;BME280;38666;43.348;12.584;2023-02-04T10:06:37;96145.16;;;21.98;31.55
52797;BME280;38666;43.348;12.584;2023-02-04T10:09:03;96147.13;;;21.23;32.97
52797;BME280;38666;43.348;12.584;2023-02-04T10:11:31;96137.03;;;23.15;30.81
52797;BME280;38666;43.348;12.584;2023-02-04T10:13:59;96119.16;;;23.86;28.94
52797;BME280;38666;43.348;12.584;2023-02-04T10:16:29;96127.53;;;22.11;31.85
52797;BME280;38666;43.348;12.584;2023-02-04T10:19:01;96130.47;;;24.37;28.26
52797;BME280;38666;43.348;12.584;2023-02-04T10:21:34;96128.38;;;23.13;29.46
52797;BME280;38666;43.348;12.584;2023-02-04T10:24:09;96135.53;;;21.05;32.47
52797;BME280;38666;43.348;12.584;2023-02-04T10:26:36;96125.66;;;20.95;33.46
52797;BME280;38666;43.348;12.584;2023-02-04T10:29:04;96120.13;;;21.14;32.61
52797;BME280;38666;43.348;12.584;2023-02-04T10:31:31;96127.56;;;21.64;32.53
52797;BME280;38666;43.348;12.584;2023-02-04T10:34:10;96111.25;;;23.30;30.01
52797;BME280;38666;43.348;12.584;2023-02-04T10:36:37;96114.28;;;24.41;28.31
52797;BME280;38666;43.348;12.584;2023-02-04T10:41:37;96110.44;;;25.94;26.24
52797;BME280;38666;43.348;12.584;2023-02-04T10:44:10;96108.69;;;26.29;25.23
52797;BME280;38666;43.348;12.584;2023-02-04T10:46:36;96094.59;;;27.38;23.60
52797;BME280;38666;43.348;12.584;2023-02-04T10:49:34;96096.63;;;27.32;24.19
52797;BME280;38666;43.348;12.584;2023-02-04T10:52:01;96087.88;;;27.91;23.89
52797;BME280;38666;43.348;12.584;2023-02-04T10:54:37;96068.50;;;28.33;22.99
52797;BME280;38666;43.348;12.584;2023-02-04T10:57:24;96073.84;;;28.77;22.02
52797;BME280;38666;43.348;12.584;2023-02-04T10:59:52;96072.06;;;27.76;23.34
52797;BME280;38666;43.348;12.584;2023-02-04T11:05:16;96061.75;;;27.38;24.28
52797;BME280;38666;43.348;12.584;2023-02-04T11:07:42;96064.97;;;28.44;23.19
52797;BME280;38666;43.348;12.584;2023-02-04T11:10:14;96058.28;;;27.90;23.32
52797;BME280;38666;43.348;12.584;2023-02-04T11:12:43;96055.72;;;27.80;23.91
52797;BME280;38666;43.348;12.584;2023-02-04T11:15:41;96047.25;;;27.63;23.50
52797;BME280;38666;43.348;12.584;2023-02-04T11:18:09;96050.78;;;29.07;21.98
52797;BME280;38666;43.348;12.584;2023-02-04T11:20:36;96054.88;;;28.94;22.27
52797;BME280;38666;43.348;12.584;2023-02-04T11:26:12;96041.31;;;29.10;21.94
52797;BME280;38666;43.348;12.584;2023-02-04T11:33:50;96040.63;;;29.88;20.85
52797;BME280;38666;43.348;12.584;2023-02-04T11:36:26;96038.38;;;29.33;21.17
52797;BME280;38666;43.348;12.584;2023-02-04T11:38:51;96034.34;;;29.23;21.92
52797;BME280;38666;43.348;12.584;2023-02-04T11:41:35;96025.72;;;29.63;21.13
52797;BME280;38666;43.348;12.584;2023-02-04T11:44:01;96025.50;;;30.28;20.93
52797;BME280;38666;43.348;12.584;2023-02-04T11:46:27;96012.72;;;29.54;20.79
52797;BME280;38666;43.348;12.584;2023-02-04T11:48:54;96016.75;;;29.64;21.21
52797;BME280;38666;43.348;12.584;2023-02-04T11:51:24;96017.31;;;28.98;22.27
52797;BME280;38666;43.348;12.584;2023-02-04T11:53:52;96015.53;;;29.00;22.66
52797;BME280;38666;43.348;12.584;2023-02-04T11:56:19;96028.31;;;31.03;20.12
52797;BME280;38666;43.348;12.584;2023-02-04T11:58:45;96019.44;;;30.93;20.34
52797;BME280;38666;43.348;12.584;2023-02-04T12:01:20;96012.09;;;28.54;22.83
52797;BME280;38666;43.348;12.584;2023-02-04T12:03:59;96006.22;;;28.17;23.27
52797;BME280;38666;43.348;12.584;2023-02-04T12:06:33;96001.03;;;28.79;22.93
52797;BME280;38666;43.348;12.584;2023-02-04T12:09:19;95999.91;;;30.76;20.65
52797;BME280;38666;43.348;12.584;2023-02-04T12:11:55;95994.13;;;31.13;20.92
52797;BME280;38666;43.348;12.584;2023-02-04T12:14:20;95984.19;;;31.06;19.88
52797;BME280;38666;43.348;12.584;2023-02-04T12:16:52;95978.50;;;29.86;21.02
52797;BME280;38666;43.348;12.584;2023-02-04T12:19:18;95984.63;;;30.15;21.21
52797;BME280;38666;43.348;12.584;2023-02-04T12:21:44;95979.13;;;31.43;20.21
52797;BME280;38666;43.348;12.584;2023-02-04T12:24:09;95997.84;;;32.25;19.12
52797;BME280;38666;43.348;12.584;2023-02-04T12:26:35;95996.06;;;29.62;21.01
52797;BME280;38666;43.348;12.584;2023-02-04T12:29:00;95999.44;;;30.22;21.59
52797;BME280;38666;43.348;12.584;2023-02-04T12:31:31;95987.59;;;31.76;19.52
52797;BME280;38666;43.348;12.584;2023-02-04T12:33:57;95987.09;;;33.19;18.33
52797;BME280;38666;43.348;12.584;2023-02-04T12:36:23;95976.38;;;32.76;18.92
52797;BME280;38666;43.348;12.584;2023-02-04T12:38:49;95976.81;;;32.53;18.42
52797;BME280;38666;43.348;12.584;2023-02-04T12:41:14;95980.47;;;32.21;19.01
52797;BME280;38666;43.348;12.584;2023-02-04T12:43:39;95977.97;;;29.46;21.60
52797;BME280;38666;43.348;12.584;2023-02-04T12:46:05;95962.88;;;32.28;19.00
52797;BME280;38666;43.348;12.584;2023-02-04T12:48:30;95966.38;;;32.75;18.06
52797;BME280;38666;43.348;12.584;2023-02-04T12:50:56;95961.66;;;32.10;19.33
52797;BME280;38666;43.348;12.584;2023-02-04T12:53:21;95969.06;;;33.99;17.46
52797;BME280;38666;43.348;12.584;2023-02-04T12:55:47;95960.63;;;31.61;19.33
52797;BME280;38666;43.348;12.584;2023-02-04T12:58:12;95965.78;;;31.76;19.22
52797;BME280;38666;43.348;12.584;2023-02-04T13:00:38;95960.25;;;32.30;18.74
52797;BME280;38666;43.348;12.584;2023-02-04T13:03:03;95962.44;;;32.78;18.38
52797;BME280;38666;43.348;12.584;2023-02-04T13:05:30;95952.97;;;33.38;18.45
52797;BME280;38666;43.348;12.584;2023-02-04T13:07:55;95948.88;;;33.39;18.53
52797;BME280;38666;43.348;12.584;2023-02-04T13:10:22;95941.59;;;32.41;18.97
52797;BME280;38666;43.348;12.584;2023-02-04T13:12:48;95938.69;;;33.09;18.75
52797;BME280;38666;43.348;12.584;2023-02-04T13:15:14;95940.84;;;33.30;17.84
52797;BME280;38666;43.348;12.584;2023-02-04T13:17:40;95930.50;;;27.60;23.84
52797;BME280;38666;43.348;12.584;2023-02-04T13:20:06;95927.41;;;27.69;24.05
52797;BME280;38666;43.348;12.584;2023-02-04T13:22:31;95927.84;;;29.50;21.65
52797;BME280;38666;43.348;12.584;2023-02-04T13:24:57;95928.75;;;29.70;21.99
52797;BME280;38666;43.348;12.584;2023-02-04T13:27:22;95922.66;;;29.90;21.69
52797;BME280;38666;43.348;12.584;2023-02-04T13:29:48;95918.53;;;32.37;19.44
52797;BME280;38666;43.348;12.584;2023-02-04T13:32:13;95922.38;;;33.71;18.05
52797;BME280;38666;43.348;12.584;2023-02-04T13:34:39;95913.75;;;32.18;19.12
52797;BME280;38666;43.348;12.584;2023-02-04T13:37:04;95933.84;;;30.02;21.55
52797;BME280;38666;43.348;12.584;2023-02-04T13:39:30;95931.97;;;31.38;19.39
52797;BME280;38666;43.348;12.584;2023-02-04T13:41:55;95933.59;;;28.79;20.34
52797;BME280;38666;43.348;12.584;2023-02-04T13:44:21;95947.34;;;27.83;20.55
52797;BME280;38666;43.348;12.584;2023-02-04T13:46:46;95940.84;;;26.41;22.42
52797;BME280;38666;43.348;12.584;2023-02-04T13:49:12;95947.91;;;26.86;22.09
52797;BME280;38666;43.348;12.584;2023-02-04T13:51:37;95961.75;;;25.75;23.51
52797;BME280;38666;43.348;12.584;2023-02-04T13:54:03;95954.47;;;27.84;22.06
52797;BME280;38666;43.348;12.584;2023-02-04T13:56:28;95955.03;;;29.72;20.36
52797;BME280;38666;43.348;12.584;2023-02-04T13:58:57;95965.44;;;30.14;19.15
52797;BME280;38666;43.348;12.584;2023-02-04T14:01:22;95960.19;;;31.57;18.04
52797;BME280;38666;43.348;12.584;2023-02-04T14:03:48;95962.88;;;32.28;17.38
52797;BME280;38666;43.348;12.584;2023-02-04T14:06:13;95960.06;;;33.87;16.04
52797;BME280;38666;43.348;12.584;2023-02-04T14:08:39;95961.16;;;34.56;15.52
52797;BME280;38666;43.348;12.584;2023-02-04T14:11:04;95970.94;;;32.65;16.70
52797;BME280;38666;43.348;12.584;2023-02-04T14:13:31;95975.72;;;31.64;17.58
52797;BME280;38666;43.348;12.584;2023-02-04T14:15:56;95994.25;;;31.40;17.56
52797;BME280;38666;43.348;12.584;2023-02-04T14:18:22;95992.81;;;30.94;18.19
52797;BME280;38666;43.348;12.584;2023-02-04T14:20:47;95995.72;;;30.08;18.55
52797;BME280;38666;43.348;12.584;2023-02-04T14:23:13;95996.81;;;29.62;19.10
52797;BME280;38666;43.348;12.584;2023-02-04T14:25:38;95999.81;;;30.37;18.44
52797;BME280;38666;43.348;12.584;2023-02-04T14:28:04;96007.88;;;29.01;19.45
52797;BME280;38666;43.348;12.584;2023-02-04T14:30:30;96010.81;;;29.74;18.73
52797;BME280;38666;43.348;12.584;2023-02-04T14:32:56;96022.22;;;30.49;18.14
52797;BME280;38666;43.348;12.584;2023-02-04T14:35:22;96024.19;;;29.98;18.18
52797;BME280;38666;43.348;12.584;2023-02-04T14:37:48;96023.44;;;27.18;20.66
52797;BME280;38666;43.348;12.584;2023-02-04T14:40:14;96016.88;;;28.76;18.97
52797;BME280;38666;43.348;12.584;2023-02-04T14:42:40;96021.47;;;27.42;19.74
52797;BME280;38666;43.348;12.584;2023-02-04T14:45:07;96034.81;;;28.33;18.20
52797;BME280;38666;43.348;12.584;2023-02-04T14:47:36;96032.28;;;28.46;18.30
52797;BME280;38666;43.348;12.584;2023-02-04T14:50:03;96038.31;;;27.59;18.49
52797;BME280;38666;43.348;12.584;2023-02-04T14:52:29;96025.63;;;27.81;18.53
52797;BME280;38666;43.348;12.584;2023-02-04T14:54:54;96032.91;;;25.47;21.04
52797;BME280;38666;43.348;12.584;2023-02-04T14:57:20;96029.84;;;27.30;19.65
52797;BME280;38666;43.348;12.584;2023-02-04T14:59:45;96030.41;;;27.57;18.64
52797;BME280;38666;43.348;12.584;2023-02-04T15:02:11;96048.31;;;26.99;19.03
52797;BME280;38666;43.348;12.584;2023-02-04T15:04:40;96048.56;;;26.19;19.28
52797;BME280;38666;43.348;12.584;2023-02-04T15:07:06;96047.06;;;25.65;19.56
52797;BME280;38666;43.348;12.584;2023-02-04T15:09:31;96053.56;;;26.79;18.80
52797;BME280;38666;43.348;12.584;2023-02-04T15:11:57;96056.06;;;26.33;18.90
52797;BME280;38666;43.348;12.584;2023-02-04T15:14:23;96056.97;;;26.19;18.45
52797;BME280;38666;43.348;12.584;2023-02-04T15:16:48;96065.75;;;25.53;18.74
52797;BME280;38666;43.348;12.584;2023-02-04T15:19:14;96066.81;;;24.57;19.67
52797;BME280;38666;43.348;12.584;2023-02-04T15:21:40;96063.59;;;24.43;19.90
52797;BME280;38666;43.348;12.584;2023-02-04T15:24:05;96072.00;;;25.00;18.88
52797;BME280;38666;43.348;12.584;2023-02-04T15:26:31;96077.97;;;25.76;18.27
52797;BME280;38666;43.348;12.584;2023-02-04T15:28:57;96080.31;;;25.63;18.37
52797;BME280;38666;43.348;12.584;2023-02-04T15:31:23;96091.72;;;26.06;17.91
52797;BME280;38666;43.348;12.584;2023-02-04T15:33:49;96098.59;;;24.44;19.17
52797;BME280;38666;43.348;12.584;2023-02-04T15:36:15;96091.78;;;24.81;19.08
52797;BME280;38666;43.348;12.584;2023-02-04T15:38:40;96101.22;;;24.84;18.76
52797;BME280;38666;43.348;12.584;2023-02-04T15:41:06;96105.75;;;24.30;19.36
52797;BME280;38666;43.348;12.584;2023-02-04T15:43:32;96096.53;;;24.75;19.38
52797;BME280;38666;43.348;12.584;2023-02-04T15:45:57;96105.72;;;24.00;20.07
52797;BME280;38666;43.348;12.584;2023-02-04T15:48:23;96110.53;;;23.84;20.33
52797;BME280;38666;43.348;12.584;2023-02-04T15:50:49;96115.81;;;24.12;19.92
52797;BME280;38666;43.348;12.584;2023-02-04T15:53:16;96128.72;;;22.38;22.03
52797;BME280;38666;43.348;12.584;2023-02-04T15:55:42;96119.44;;;22.32;21.85
52797;BME280;38666;43.348;12.584;2023-02-04T15:58:07;96127.19;;;20.23;24.47
52797;BME280;38666;43.348;12.584;2023-02-04T16:00:33;96106.00;;;18.78;26.80
52797;BME280;38666;43.348;12.584;2023-02-04T16:02:58;96114.50;;;17.46;29.07
52797;BME280;38666;43.348;12.584;2023-02-04T16:05:24;96124.78;;;16.08;30.91
52797;BME280;38666;43.348;12.584;2023-02-04T16:07:49;96130.97;;;15.51;32.29
52797;BME280;38666;43.348;12.584;2023-02-04T16:10:16;96134.53;;;15.04;33.32
52797;BME280;38666;43.348;12.584;2023-02-04T16:12:41;96130.81;;;14.90;33.72
52797;BME280;38666;43.348;12.584;2023-02-04T16:15:07;96144.69;;;14.28;35.49
52797;BME280;38666;43.348;12.584;2023-02-04T16:17:33;96154.31;;;13.35;36.74
52797;BME280;38666;43.348;12.584;2023-02-04T16:19:59;96145.84;;;13.60;37.23
52797;BME280;38666;43.348;12.584;2023-02-04T16:22:25;96162.44;;;13.46;37.53
52797;BME280;38666;43.348;12.584;2023-02-04T16:24:51;96164.44;;;12.96;38.73
52797;BME280;38666;43.348;12.584;2023-02-04T16:27:17;96174.56;;;13.03;38.97
52797;BME280;38666;43.348;12.584;2023-02-04T16:29:43;96171.47;;;12.97;39.10
52797;BME280;38666;43.348;12.584;2023-02-04T16:32:08;96184.22;;;12.69;39.95
52797;BME280;38666;43.348;12.584;2023-02-04T16:34:34;96189.91;;;12.32;41.16
52797;BME280;38666;43.348;12.584;2023-02-04T16:36:59;96190.19;;;12.49;40.34
52797;BME280;38666;43.348;12.584;2023-02-04T16:39:25;96194.97;;;12.37;41.24
52797;BME280;38666;43.348;12.584;2023-02-04T16:41:50;96195.06;;;12.01;41.80
52797;BME280;38666;43.348;12.584;2023-02-04T16:44:16;96198.19;;;12.03;42.14
52797;BME280;38666;43.348;12.584;2023-02-04T16:46:41;96209.19;;;11.96;42.80
52797;BME280;38666;43.348;12.584;2023-02-04T16:49:07;96197.13;;;11.67;42.61
52797;BME280;38666;43.348;12.584;2023-02-04T16:51:32;96212.81;;;11.38;43.40
52797;BME280;38666;43.348;12.584;2023-02-04T16:53:57;96220.63;;;11.32;43.74
52797;BME280;38666;43.348;12.584;2023-02-04T16:56:23;96233.91;;;11.37;43.67
52797;BME280;38666;43.348;12.584;2023-02-04T16:58:48;96251.00;;;10.57;44.25
52797;BME280;38666;43.348;12.584;2023-02-04T17:01:14;96264.28;;;10.81;44.19
52797;BME280;38666;43.348;12.584;2023-02-04T17:03:42;96268.22;;;10.83;43.89
52797;BME280;38666;43.348;12.584;2023-02-04T17:06:07;96279.97;;;10.95;44.10
52797;BME280;38666;43.348;12.584;2023-02-04T17:08:33;96276.00;;;10.78;44.62
52797;BME280;38666;43.348;12.584;2023-02-04T17:10:58;96288.09;;;10.69;45.32
52797;BME280;38666;43.348;12.584;2023-02-04T17:13:42;96289.25;;;10.61;45.33
52797;BME280;38666;43.348;12.584;2023-02-04T17:16:07;96299.22;;;10.35;46.77
52797;BME280;38666;43.348;12.584;2023-02-04T17:18:33;96298.69;;;10.04;47.62
52797;BME280;38666;43.348;12.584;2023-02-04T17:20:59;96308.88;;;10.14;48.08
52797;BME280;38666;43.348;12.584;2023-02-04T17:23:25;96323.69;;;10.09;48.51
52797;BME280;38666;43.348;12.584;2023-02-04T17:25:51;96306.06;;;9.99;49.60
52797;BME280;38666;43.348;12.584;2023-02-04T17:28:16;96322.38;;;9.92;50.16
52797;BME280;38666;43.348;12.584;2023-02-04T17:30:42;96322.28;;;9.78;51.19
52797;BME280;38666;43.348;12.584;2023-02-04T17:33:07;96334.38;;;9.27;52.86
52797;BME280;38666;43.348;12.584;2023-02-04T17:35:33;96329.44;;;9.44;53.14
52797;BME280;38666;43.348;12.584;2023-02-04T17:37:58;96328.84;;;9.20;53.75
52797;BME280;38666;43.348;12.584;2023-02-04T17:40:28;96328.53;;;8.91;53.57
52797;BME280;38666;43.348;12.584;2023-02-04T17:42:53;96320.97;;;9.11;52.84
52797;BME280;38666;43.348;12.584;2023-02-04T17:45:20;96322.94;;;8.76;53.60
52797;BME280;38666;43.348;12.584;2023-02-04T17:47:46;96339.28;;;8.76;52.87
52797;BME280;38666;43.348;12.584;2023-02-04T17:50:11;96341.63;;;8.78;52.88
52797;BME280;38666;43.348;12.584;2023-02-04T17:52:37;96341.56;;;8.74;52.87
52797;BME280;38666;43.348;12.584;2023-02-04T17:55:24;96355.41;;;8.58;52.95
52797;BME280;38666;43.348;12.584;2023-02-04T17:57:54;96357.53;;;8.45;53.32
52797;BME280;38666;43.348;12.584;2023-02-04T18:00:23;96367.59;;;8.41;53.05
52797;BME280;38666;43.348;12.584;2023-02-04T18:02:50;96354.72;;;8.38;52.62
52797;BME280;38666;43.348;12.584;2023-02-04T18:05:19;96370.63;;;8.36;52.54
52797;BME280;38666;43.348;12.584;2023-02-04T18:08:13;96376.22;;;8.47;52.89
52797;BME280;38666;43.348;12.584;2023-02-04T18:10:42;96380.06;;;8.42;53.13
52797;BME280;38666;43.348;12.584;2023-02-04T18:13:16;96376.19;;;8.43;53.54
52797;BME280;38666;43.348;12.584;2023-02-04T18:18:22;96373.03;;;8.41;53.74
52797;BME280;38666;43.348;12.584;2023-02-04T18:23:21;96385.94;;;8.17;52.32
52797;BME280;38666;43.348;12.584;2023-02-04T18:25:47;96403.28;;;8.09;52.43
52797;BME280;38666;43.348;12.584;2023-02-04T18:28:18;96392.47;;;8.12;51.46
52797;BME280;38666;43.348;12.584;2023-02-04T18:30:45;96411.03;;;8.06;51.09
52797;BME280;38666;43.348;12.584;2023-02-04T18:33:20;96408.72;;;8.09;50.51
52797;BME280;38666;43.348;12.584;2023-02-04T18:35:47;96423.84;;;8.06;50.56
52797;BME280;38666;43.348;12.584;2023-02-04T18:38:28;96436.34;;;8.11;50.21
52797;BME280;38666;43.348;12.584;2023-02-04T18:41:07;96452.75;;;7.91;50.29
52797;BME280;38666;43.348;12.584;2023-02-04T18:43:35;96446.66;;;7.74;50.76
52797;BME280;38666;43.348;12.584;2023-02-04T18:46:18;96447.84;;;7.77;50.86
52797;BME280;38666;43.348;12.584;2023-02-04T18:51:24;96464.56;;;7.55;49.12
